sensor_id;sensor_type;location;lat;lon;timestamp;P1;durP1;ratioP1;P2;durP2;ratioP2
26936;SDS011;14495;48.116;11.676;2022-08-30T00:00:34;8.00;;;6.32;;
26936;SDS011;14495;48.116;11.676;2022-08-30T00:03:18;10.93;;;7.32;;
26936;SDS011;14495;48.116;11.676;2022-08-30T00:05:44;12.80;;;7.13;;
26936;SDS011;14495;48.116;11.676;2022-08-30T00:08:10;8.95;;;6.35;;
26936;SDS011;14495;48.116;11.676;2022-08-30T00:10:36;11.07;;;6.93;;
26936;SDS011;14495;48.116;11.676;2022-08-30T00:13:03;13.25;;;7.20;;
26936;SDS011;14495;48.116;11.676;2022-08-30T00:15:30;9.48;;;6.88;;
26936;SDS011;14495;48.116;11.676;2022-08-30T00:17:56;11.95;;;7.57;;
26936;SDS011;14495;48.116;11.676;2022-08-30T00:20:23;7.88;;;6.15;;
26936;SDS011;14495;48.116;11.676;2022-08-30T00:22:50;11.07;;;6.47;;
26936;SDS011;14495;48.116;11.676;2022-08-30T00:25:16;10.02;;;7.30;;
26936;SDS011;14495;48.116;11.676;2022-08-30T00:27:43;9.55;;;6.65;;
26936;SDS011;14495;48.116;11.676;2022-08-30T00:30:09;13.02;;;7.60;;
26936;SDS011;14495;48.116;11.676;2022-08-30T00:32:35;9.93;;;6.45;;
26936;SDS011;14495;48.116;11.676;2022-08-30T00:35:01;10.80;;;6.60;;
26936;SDS011;14495;48.116;11.676;2022-08-30T00:37:28;10.40;;;6.40;;
26936;SDS011;14495;48.116;11.676;2022-08-30T00:39:53;8.60;;;6.05;;
26936;SDS011;14495;48.116;11.676;2022-08-30T00:42:19;10.55;;;6.95;;
26936;SDS011;14495;48.116;11.676;2022-08-30T00:44:45;10.38;;;7.13;;
26936;SDS011;14495;48.116;11.676;2022-08-30T00:47:11;10.65;;;7.10;;
26936;SDS011;14495;48.116;11.676;2022-08-30T00:49:37;10.25;;;7.00;;
26936;SDS011;14495;48.116;11.676;2022-08-30T00:52:06;8.40;;;6.22;;
26936;SDS011;14495;48.116;11.676;2022-08-30T00:54:31;9.05;;;6.32;;
26936;SDS011;14495;48.116;11.676;2022-08-30T00:56:58;9.35;;;6.80;;
26936;SDS011;14495;48.116;11.676;2022-08-30T00:59:24;8.18;;;5.93;;
26936;SDS011;14495;48.116;11.676;2022-08-30T01:01:50;10.07;;;6.88;;
26936;SDS011;14495;48.116;11.676;2022-08-30T01:04:17;9.15;;;6.30;;
26936;SDS011;14495;48.116;11.676;2022-08-30T01:06:46;7.97;;;6.00;;
26936;SDS011;14495;48.116;11.676;2022-08-30T01:09:11;9.25;;;6.70;;
26936;SDS011;14495;48.116;11.676;2022-08-30T01:11:38;9.02;;;6.55;;
26936;SDS011;14495;48.116;11.676;2022-08-30T01:14:07;8.57;;;5.97;;
26936;SDS011;14495;48.116;11.676;2022-08-30T01:16:35;9.23;;;6.63;;
26936;SDS011;14495;48.116;11.676;2022-08-30T01:19:02;12.75;;;6.45;;
26936;SDS011;14495;48.116;11.676;2022-08-30T01:24:03;12.52;;;6.85;;
26936;SDS011;14495;48.116;11.676;2022-08-30T01:26:31;10.20;;;7.18;;
26936;SDS011;14495;48.116;11.676;2022-08-30T01:28:59;8.73;;;6.22;;
26936;SDS011;14495;48.116;11.676;2022-08-30T01:31:34;10.02;;;6.63;;
26936;SDS011;14495;48.116;11.676;2022-08-30T01:34:01;9.02;;;6.18;;
26936;SDS011;14495;48.116;11.676;2022-08-30T01:36:31;9.27;;;6.35;;
26936;SDS011;14495;48.116;11.676;2022-08-30T01:38:57;8.98;;;6.35;;
26936;SDS011;14495;48.116;11.676;2022-08-30T01:41:27;10.35;;;6.90;;
26936;SDS011;14495;48.116;11.676;2022-08-30T01:43:56;9.25;;;7.07;;
26936;SDS011;14495;48.116;11.676;2022-08-30T01:46:25;8.95;;;6.43;;
26936;SDS011;14495;48.116;11.676;2022-08-30T01:49:00;10.20;;;6.80;;
26936;SDS011;14495;48.116;11.676;2022-08-30T01:51:27;11.85;;;7.05;;
26936;SDS011;14495;48.116;11.676;2022-08-30T01:53:53;11.23;;;7.13;;
26936;SDS011;14495;48.116;11.676;2022-08-30T01:56:19;9.85;;;6.60;;
26936;SDS011;14495;48.116;11.676;2022-08-30T01:58:44;9.00;;;6.30;;
26936;SDS011;14495;48.116;11.676;2022-08-30T02:01:12;12.38;;;6.47;;
26936;SDS011;14495;48.116;11.676;2022-08-30T02:03:39;10.75;;;6.85;;
26936;SDS011;14495;48.116;11.676;2022-08-30T02:06:07;10.60;;;6.70;;
26936;SDS011;14495;48.116;11.676;2022-08-30T02:08:35;8.90;;;6.00;;
26936;SDS011;14495;48.116;11.676;2022-08-30T02:11:02;10.57;;;7.15;;
26936;SDS011;14495;48.116;11.676;2022-08-30T02:13:28;15.27;;;6.40;;
26936;SDS011;14495;48.116;11.676;2022-08-30T02:15:54;11.43;;;6.63;;
26936;SDS011;14495;48.116;11.676;2022-08-30T02:18:20;13.68;;;6.95;;
26936;SDS011;14495;48.116;11.676;2022-08-30T02:20:46;9.90;;;6.72;;
26936;SDS011;14495;48.116;11.676;2022-08-30T02:23:12;9.95;;;7.07;;
26936;SDS011;14495;48.116;11.676;2022-08-30T02:25:37;9.82;;;6.28;;
26936;SDS011;14495;48.116;11.676;2022-08-30T02:28:03;8.57;;;6.28;;
26936;SDS011;14495;48.116;11.676;2022-08-30T02:30:29;10.55;;;7.00;;
26936;SDS011;14495;48.116;11.676;2022-08-30T02:32:55;9.23;;;6.88;;
26936;SDS011;14495;48.116;11.676;2022-08-30T02:35:21;7.93;;;5.85;;
26936;SDS011;14495;48.116;11.676;2022-08-30T02:37:46;8.45;;;6.30;;
26936;SDS011;14495;48.116;11.676;2022-08-30T02:40:11;11.68;;;7.45;;
26936;SDS011;14495;48.116;11.676;2022-08-30T02:42:37;9.93;;;6.45;;
26936;SDS011;14495;48.116;11.676;2022-08-30T02:45:02;7.82;;;5.97;;
26936;SDS011;14495;48.116;11.676;2022-08-30T02:47:28;8.20;;;6.15;;
26936;SDS011;14495;48.116;11.676;2022-08-30T02:49:53;10.85;;;6.18;;
26936;SDS011;14495;48.116;11.676;2022-08-30T02:52:18;8.23;;;5.82;;
26936;SDS011;14495;48.116;11.676;2022-08-30T02:54:44;9.30;;;6.00;;
26936;SDS011;14495;48.116;11.676;2022-08-30T02:57:10;10.52;;;6.65;;
26936;SDS011;14495;48.116;11.676;2022-08-30T02:59:37;8.27;;;5.93;;
26936;SDS011;14495;48.116;11.676;2022-08-30T03:02:07;9.88;;;6.25;;
26936;SDS011;14495;48.116;11.676;2022-08-30T03:04:34;8.98;;;5.68;;
26936;SDS011;14495;48.116;11.676;2022-08-30T03:07:00;8.88;;;6.20;;
26936;SDS011;14495;48.116;11.676;2022-08-30T03:09:25;8.85;;;6.57;;
26936;SDS011;14495;48.116;11.676;2022-08-30T03:11:50;9.70;;;6.32;;
26936;SDS011;14495;48.116;11.676;2022-08-30T03:14:16;6.35;;;5.00;;
26936;SDS011;14495;48.116;11.676;2022-08-30T03:16:41;7.35;;;5.38;;
26936;SDS011;14495;48.116;11.676;2022-08-30T03:19:06;8.25;;;5.82;;
26936;SDS011;14495;48.116;11.676;2022-08-30T03:21:32;8.88;;;5.85;;
26936;SDS011;14495;48.116;11.676;2022-08-30T03:23:57;8.80;;;6.10;;
26936;SDS011;14495;48.116;11.676;2022-08-30T03:26:22;8.68;;;5.60;;
26936;SDS011;14495;48.116;11.676;2022-08-30T03:28:48;7.68;;;5.35;;
26936;SDS011;14495;48.116;11.676;2022-08-30T03:31:13;11.10;;;6.40;;
26936;SDS011;14495;48.116;11.676;2022-08-30T03:33:38;8.43;;;5.53;;
26936;SDS011;14495;48.116;11.676;2022-08-30T03:36:04;10.32;;;5.70;;
26936;SDS011;14495;48.116;11.676;2022-08-30T03:38:31;8.25;;;5.07;;
26936;SDS011;14495;48.116;11.676;2022-08-30T03:40:57;10.32;;;6.25;;
26936;SDS011;14495;48.116;11.676;2022-08-30T03:43:22;12.38;;;6.50;;
26936;SDS011;14495;48.116;11.676;2022-08-30T03:45:47;8.98;;;5.25;;
26936;SDS011;14495;48.116;11.676;2022-08-30T03:48:13;7.55;;;5.28;;
26936;SDS011;14495;48.116;11.676;2022-08-30T03:50:38;10.60;;;6.45;;
26936;SDS011;14495;48.116;11.676;2022-08-30T03:53:04;8.57;;;5.95;;
26936;SDS011;14495;48.116;11.676;2022-08-30T03:55:29;9.18;;;5.78;;
26936;SDS011;14495;48.116;11.676;2022-08-30T03:57:55;7.50;;;5.47;;
26936;SDS011;14495;48.116;11.676;2022-08-30T04:00:21;9.23;;;5.97;;
26936;SDS011;14495;48.116;11.676;2022-08-30T04:02:46;8.82;;;5.80;;
26936;SDS011;14495;48.116;11.676;2022-08-30T04:05:12;8.45;;;5.90;;
26936;SDS011;14495;48.116;11.676;2022-08-30T04:07:37;8.27;;;5.80;;
26936;SDS011;14495;48.116;11.676;2022-08-30T04:10:06;8.75;;;5.68;;
26936;SDS011;14495;48.116;11.676;2022-08-30T04:12:32;9.60;;;5.75;;
26936;SDS011;14495;48.116;11.676;2022-08-30T04:14:58;8.23;;;5.75;;
26936;SDS011;14495;48.116;11.676;2022-08-30T04:17:24;8.45;;;5.97;;
26936;SDS011;14495;48.116;11.676;2022-08-30T04:19:49;8.45;;;5.55;;
26936;SDS011;14495;48.116;11.676;2022-08-30T04:22:14;8.98;;;5.72;;
26936;SDS011;14495;48.116;11.676;2022-08-30T04:24:40;8.95;;;5.93;;
26936;SDS011;14495;48.116;11.676;2022-08-30T04:27:06;8.02;;;5.80;;
26936;SDS011;14495;48.116;11.676;2022-08-30T04:29:32;7.72;;;5.70;;
26936;SDS011;14495;48.116;11.676;2022-08-30T04:31:58;8.38;;;5.28;;
26936;SDS011;14495;48.116;11.676;2022-08-30T04:34:24;9.20;;;5.75;;
26936;SDS011;14495;48.116;11.676;2022-08-30T04:36:49;9.95;;;6.03;;
26936;SDS011;14495;48.116;11.676;2022-08-30T04:39:16;8.85;;;5.82;;
26936;SDS011;14495;48.116;11.676;2022-08-30T04:41:41;7.97;;;5.07;;
26936;SDS011;14495;48.116;11.676;2022-08-30T04:44:06;12.25;;;5.78;;
26936;SDS011;14495;48.116;11.676;2022-08-30T04:46:33;11.07;;;5.55;;
26936;SDS011;14495;48.116;11.676;2022-08-30T04:48:59;7.25;;;5.18;;
26936;SDS011;14495;48.116;11.676;2022-08-30T04:51:25;10.80;;;5.53;;
26936;SDS011;14495;48.116;11.676;2022-08-30T04:53:50;7.18;;;5.40;;
26936;SDS011;14495;48.116;11.676;2022-08-30T04:56:17;10.23;;;5.63;;
26936;SDS011;14495;48.116;11.676;2022-08-30T04:58:47;9.63;;;6.38;;
26936;SDS011;14495;48.116;11.676;2022-08-30T05:01:14;8.20;;;5.85;;
26936;SDS011;14495;48.116;11.676;2022-08-30T05:03:41;11.93;;;6.40;;
26936;SDS011;14495;48.116;11.676;2022-08-30T05:06:09;7.80;;;5.38;;
26936;SDS011;14495;48.116;11.676;2022-08-30T05:08:35;9.23;;;5.45;;
26936;SDS011;14495;48.116;11.676;2022-08-30T05:11:02;8.30;;;5.63;;
26936;SDS011;14495;48.116;11.676;2022-08-30T05:13:28;10.63;;;6.20;;
26936;SDS011;14495;48.116;11.676;2022-08-30T05:15:54;8.68;;;5.82;;
26936;SDS011;14495;48.116;11.676;2022-08-30T05:18:19;10.55;;;6.18;;
26936;SDS011;14495;48.116;11.676;2022-08-30T05:20:45;9.75;;;5.90;;
26936;SDS011;14495;48.116;11.676;2022-08-30T05:23:10;9.25;;;5.50;;
26936;SDS011;14495;48.116;11.676;2022-08-30T05:25:36;8.35;;;5.75;;
26936;SDS011;14495;48.116;11.676;2022-08-30T05:28:04;9.32;;;5.50;;
26936;SDS011;14495;48.116;11.676;2022-08-30T05:30:31;10.27;;;6.75;;
26936;SDS011;14495;48.116;11.676;2022-08-30T05:32:58;9.80;;;6.45;;
26936;SDS011;14495;48.116;11.676;2022-08-30T05:35:24;12.68;;;6.53;;
26936;SDS011;14495;48.116;11.676;2022-08-30T05:37:49;8.13;;;5.93;;
26936;SDS011;14495;48.116;11.676;2022-08-30T05:40:14;13.73;;;6.78;;
26936;SDS011;14495;48.116;11.676;2022-08-30T05:42:41;11.18;;;6.75;;
26936;SDS011;14495;48.116;11.676;2022-08-30T05:45:07;8.45;;;6.05;;
26936;SDS011;14495;48.116;11.676;2022-08-30T05:47:34;12.30;;;5.65;;
26936;SDS011;14495;48.116;11.676;2022-08-30T05:50:00;8.57;;;6.25;;
26936;SDS011;14495;48.116;11.676;2022-08-30T05:52:27;9.65;;;6.28;;
26936;SDS011;14495;48.116;11.676;2022-08-30T05:54:56;7.03;;;5.10;;
26936;SDS011;14495;48.116;11.676;2022-08-30T05:57:26;7.78;;;5.40;;
26936;SDS011;14495;48.116;11.676;2022-08-30T05:59:51;7.35;;;4.70;;
26936;SDS011;14495;48.116;11.676;2022-08-30T06:02:17;9.23;;;5.15;;
26936;SDS011;14495;48.116;11.676;2022-08-30T06:04:42;7.85;;;5.60;;
26936;SDS011;14495;48.116;11.676;2022-08-30T06:07:07;9.20;;;5.78;;
26936;SDS011;14495;48.116;11.676;2022-08-30T06:09:34;6.65;;;4.78;;
26936;SDS011;14495;48.116;11.676;2022-08-30T06:11:59;7.28;;;5.05;;
26936;SDS011;14495;48.116;11.676;2022-08-30T06:14:24;7.10;;;4.50;;
26936;SDS011;14495;48.116;11.676;2022-08-30T06:16:50;7.53;;;4.38;;
26936;SDS011;14495;48.116;11.676;2022-08-30T06:19:16;7.20;;;4.60;;
26936;SDS011;14495;48.116;11.676;2022-08-30T06:21:42;6.50;;;4.75;;
26936;SDS011;14495;48.116;11.676;2022-08-30T06:24:11;8.10;;;4.65;;
26936;SDS011;14495;48.116;11.676;2022-08-30T06:26:39;7.68;;;4.55;;
26936;SDS011;14495;48.116;11.676;2022-08-30T06:29:08;6.50;;;4.78;;
26936;SDS011;14495;48.116;11.676;2022-08-30T06:31:35;5.90;;;4.20;;
26936;SDS011;14495;48.116;11.676;2022-08-30T06:34:01;8.55;;;4.90;;
26936;SDS011;14495;48.116;11.676;2022-08-30T06:36:26;7.00;;;4.53;;
26936;SDS011;14495;48.116;11.676;2022-08-30T06:38:53;6.15;;;4.50;;
26936;SDS011;14495;48.116;11.676;2022-08-30T06:41:20;6.63;;;4.30;;
26936;SDS011;14495;48.116;11.676;2022-08-30T06:43:49;7.78;;;4.90;;
26936;SDS011;14495;48.116;11.676;2022-08-30T06:46:16;5.95;;;4.43;;
26936;SDS011;14495;48.116;11.676;2022-08-30T06:48:44;4.72;;;3.92;;
26936;SDS011;14495;48.116;11.676;2022-08-30T06:51:10;5.55;;;3.95;;
26936;SDS011;14495;48.116;11.676;2022-08-30T06:53:35;7.00;;;4.38;;
26936;SDS011;14495;48.116;11.676;2022-08-30T06:56:02;7.40;;;4.10;;
26936;SDS011;14495;48.116;11.676;2022-08-30T06:58:28;6.60;;;4.72;;
26936;SDS011;14495;48.116;11.676;2022-08-30T07:00:56;7.68;;;5.10;;
26936;SDS011;14495;48.116;11.676;2022-08-30T07:03:22;5.50;;;4.40;;
26936;SDS011;14495;48.116;11.676;2022-08-30T07:05:48;7.68;;;4.60;;
26936;SDS011;14495;48.116;11.676;2022-08-30T07:08:14;5.28;;;4.20;;
26936;SDS011;14495;48.116;11.676;2022-08-30T07:10:40;8.23;;;4.20;;
26936;SDS011;14495;48.116;11.676;2022-08-30T07:13:06;5.38;;;3.83;;
26936;SDS011;14495;48.116;11.676;2022-08-30T07:15:33;6.30;;;4.20;;
26936;SDS011;14495;48.116;11.676;2022-08-30T07:17:58;5.38;;;4.18;;
26936;SDS011;14495;48.116;11.676;2022-08-30T07:20:42;6.45;;;3.80;;
26936;SDS011;14495;48.116;11.676;2022-08-30T07:23:08;5.47;;;4.38;;
26936;SDS011;14495;48.116;11.676;2022-08-30T07:25:35;6.93;;;4.90;;
26936;SDS011;14495;48.116;11.676;2022-08-30T07:28:04;5.05;;;4.22;;
26936;SDS011;14495;48.116;11.676;2022-08-30T07:30:31;6.05;;;4.32;;
26936;SDS011;14495;48.116;11.676;2022-08-30T07:32:57;5.13;;;4.40;;
26936;SDS011;14495;48.116;11.676;2022-08-30T07:35:23;6.40;;;4.65;;
26936;SDS011;14495;48.116;11.676;2022-08-30T07:37:48;6.00;;;4.45;;
26936;SDS011;14495;48.116;11.676;2022-08-30T07:40:14;6.57;;;4.60;;
26936;SDS011;14495;48.116;11.676;2022-08-30T07:42:39;6.78;;;4.32;;
26936;SDS011;14495;48.116;11.676;2022-08-30T07:45:05;10.77;;;4.15;;
26936;SDS011;14495;48.116;11.676;2022-08-30T07:47:32;6.40;;;4.55;;
26936;SDS011;14495;48.116;11.676;2022-08-30T07:49:58;5.57;;;4.65;;
26936;SDS011;14495;48.116;11.676;2022-08-30T07:52:24;9.05;;;5.03;;
26936;SDS011;14495;48.116;11.676;2022-08-30T07:54:51;5.07;;;4.28;;
26936;SDS011;14495;48.116;11.676;2022-08-30T07:57:17;8.32;;;4.18;;
26936;SDS011;14495;48.116;11.676;2022-08-30T07:59:42;5.80;;;4.22;;
26936;SDS011;14495;48.116;11.676;2022-08-30T08:02:08;5.13;;;3.95;;
26936;SDS011;14495;48.116;11.676;2022-08-30T08:04:33;7.53;;;4.93;;
26936;SDS011;14495;48.116;11.676;2022-08-30T08:06:59;5.47;;;4.60;;
26936;SDS011;14495;48.116;11.676;2022-08-30T08:09:25;7.18;;;4.50;;
26936;SDS011;14495;48.116;11.676;2022-08-30T08:11:50;5.35;;;4.20;;
26936;SDS011;14495;48.116;11.676;2022-08-30T08:14:16;6.88;;;3.80;;
26936;SDS011;14495;48.116;11.676;2022-08-30T08:16:41;7.22;;;4.25;;
26936;SDS011;14495;48.116;11.676;2022-08-30T08:19:08;6.22;;;4.15;;
26936;SDS011;14495;48.116;11.676;2022-08-30T08:21:35;5.00;;;3.72;;
26936;SDS011;14495;48.116;11.676;2022-08-30T08:24:01;5.55;;;4.00;;
26936;SDS011;14495;48.116;11.676;2022-08-30T08:26:27;4.47;;;3.70;;
26936;SDS011;14495;48.116;11.676;2022-08-30T08:28:52;7.28;;;4.30;;
26936;SDS011;14495;48.116;11.676;2022-08-30T08:31:19;7.20;;;4.20;;
26936;SDS011;14495;48.116;11.676;2022-08-30T08:33:46;4.93;;;4.35;;
26936;SDS011;14495;48.116;11.676;2022-08-30T08:36:12;7.00;;;4.20;;
26936;SDS011;14495;48.116;11.676;2022-08-30T08:38:38;5.97;;;4.30;;
26936;SDS011;14495;48.116;11.676;2022-08-30T08:41:12;6.50;;;4.32;;
26936;SDS011;14495;48.116;11.676;2022-08-30T08:43:52;7.72;;;4.18;;
26936;SDS011;14495;48.116;11.676;2022-08-30T08:46:27;6.63;;;5.07;;
26936;SDS011;14495;48.116;11.676;2022-08-30T08:49:01;6.40;;;4.38;;
26936;SDS011;14495;48.116;11.676;2022-08-30T08:51:32;7.15;;;4.95;;
26936;SDS011;14495;48.116;11.676;2022-08-30T08:57:22;4.57;;;3.88;;
26936;SDS011;14495;48.116;11.676;2022-08-30T08:59:48;5.78;;;4.45;;
26936;SDS011;14495;48.116;11.676;2022-08-30T09:04:53;5.05;;;3.70;;
26936;SDS011;14495;48.116;11.676;2022-08-30T09:07:31;5.80;;;3.88;;
26936;SDS011;14495;48.116;11.676;2022-08-30T09:10:03;4.32;;;3.45;;
26936;SDS011;14495;48.116;11.676;2022-08-30T09:12:29;5.20;;;4.20;;
26936;SDS011;14495;48.116;11.676;2022-08-30T09:14:58;5.28;;;3.70;;
26936;SDS011;14495;48.116;11.676;2022-08-30T09:17:28;5.55;;;3.88;;
26936;SDS011;14495;48.116;11.676;2022-08-30T09:24:49;4.82;;;3.60;;
26936;SDS011;14495;48.116;11.676;2022-08-30T09:27:18;5.68;;;3.40;;
26936;SDS011;14495;48.116;11.676;2022-08-30T09:29:59;4.97;;;3.55;;
26936;SDS011;14495;48.116;11.676;2022-08-30T09:32:35;4.40;;;3.05;;
26936;SDS011;14495;48.116;11.676;2022-08-30T09:35:04;5.90;;;3.40;;
26936;SDS011;14495;48.116;11.676;2022-08-30T09:37:37;4.97;;;3.47;;
26936;SDS011;14495;48.116;11.676;2022-08-30T09:40:10;3.78;;;3.30;;
26936;SDS011;14495;48.116;11.676;2022-08-30T09:42:39;3.53;;;3.22;;
26936;SDS011;14495;48.116;11.676;2022-08-30T09:45:05;3.40;;;3.10;;
26936;SDS011;14495;48.116;11.676;2022-08-30T09:47:42;3.03;;;2.72;;
26936;SDS011;14495;48.116;11.676;2022-08-30T09:50:12;4.05;;;2.92;;
26936;SDS011;14495;48.116;11.676;2022-08-30T09:58:38;3.15;;;2.63;;
26936;SDS011;14495;48.116;11.676;2022-08-30T10:01:20;3.63;;;2.70;;
26936;SDS011;14495;48.116;11.676;2022-08-30T10:06:33;3.15;;;2.47;;
26936;SDS011;14495;48.116;11.676;2022-08-30T10:17:30;4.25;;;3.00;;
26936;SDS011;14495;48.116;11.676;2022-08-30T10:22:37;4.25;;;2.80;;
26936;SDS011;14495;48.116;11.676;2022-08-30T10:25:12;2.83;;;2.53;;
26936;SDS011;14495;48.116;11.676;2022-08-30T10:27:49;4.45;;;2.67;;
26936;SDS011;14495;48.116;11.676;2022-08-30T10:30:21;3.05;;;2.58;;
26936;SDS011;14495;48.116;11.676;2022-08-30T10:32:50;3.00;;;2.70;;
26936;SDS011;14495;48.116;11.676;2022-08-30T10:35:21;3.35;;;2.60;;
26936;SDS011;14495;48.116;11.676;2022-08-30T10:38:05;3.53;;;2.63;;
26936;SDS011;14495;48.116;11.676;2022-08-30T10:40:38;2.53;;;2.33;;
26936;SDS011;14495;48.116;11.676;2022-08-30T10:43:32;3.33;;;2.80;;
26936;SDS011;14495;48.116;11.676;2022-08-30T10:46:07;4.18;;;2.70;;
26936;SDS011;14495;48.116;11.676;2022-08-30T10:48:43;3.97;;;2.17;;
26936;SDS011;14495;48.116;11.676;2022-08-30T10:51:14;2.45;;;2.00;;
26936;SDS011;14495;48.116;11.676;2022-08-30T10:53:48;3.45;;;2.10;;
26936;SDS011;14495;48.116;11.676;2022-08-30T10:56:19;4.00;;;2.40;;
26936;SDS011;14495;48.116;11.676;2022-08-30T10:58:48;2.58;;;2.20;;
26936;SDS011;14495;48.116;11.676;2022-08-30T11:01:24;9.95;;;2.30;;
26936;SDS011;14495;48.116;11.676;2022-08-30T11:09:12;3.40;;;2.05;;
26936;SDS011;14495;48.116;11.676;2022-08-30T11:11:50;2.85;;;2.30;;
26936;SDS011;14495;48.116;11.676;2022-08-30T11:14:24;3.57;;;2.30;;
26936;SDS011;14495;48.116;11.676;2022-08-30T11:16:51;4.13;;;2.75;;
26936;SDS011;14495;48.116;11.676;2022-08-30T11:19:38;2.05;;;1.85;;
26936;SDS011;14495;48.116;11.676;2022-08-30T11:33:02;2.55;;;2.35;;
26936;SDS011;14495;48.116;11.676;2022-08-30T11:35:45;2.93;;;2.20;;
26936;SDS011;14495;48.116;11.676;2022-08-30T11:41:05;2.85;;;2.13;;
26936;SDS011;14495;48.116;11.676;2022-08-30T11:48:49;2.50;;;2.10;;
26936;SDS011;14495;48.116;11.676;2022-08-30T11:56:24;2.10;;;1.90;;
26936;SDS011;14495;48.116;11.676;2022-08-30T11:59:05;2.83;;;2.15;;
26936;SDS011;14495;48.116;11.676;2022-08-30T12:01:42;2.58;;;2.25;;
26936;SDS011;14495;48.116;11.676;2022-08-30T12:06:51;3.95;;;2.35;;
26936;SDS011;14495;48.116;11.676;2022-08-30T12:12:10;2.60;;;2.10;;
26936;SDS011;14495;48.116;11.676;2022-08-30T12:14:54;2.70;;;2.08;;
26936;SDS011;14495;48.116;11.676;2022-08-30T12:17:26;2.50;;;2.20;;
26936;SDS011;14495;48.116;11.676;2022-08-30T12:20:15;2.47;;;2.03;;
26936;SDS011;14495;48.116;11.676;2022-08-30T12:22:41;2.50;;;2.28;;
26936;SDS011;14495;48.116;11.676;2022-08-30T12:25:28;3.70;;;2.58;;
26936;SDS011;14495;48.116;11.676;2022-08-30T12:28:07;3.00;;;2.50;;
26936;SDS011;14495;48.116;11.676;2022-08-30T12:30:44;5.28;;;2.97;;
26936;SDS011;14495;48.116;11.676;2022-08-30T12:33:11;3.85;;;2.35;;
26936;SDS011;14495;48.116;11.676;2022-08-30T12:35:38;2.75;;;2.13;;
26936;SDS011;14495;48.116;11.676;2022-08-30T12:38:11;2.80;;;2.25;;
26936;SDS011;14495;48.116;11.676;2022-08-30T12:40:51;3.22;;;2.60;;
26936;SDS011;14495;48.116;11.676;2022-08-30T12:43:25;4.95;;;2.65;;
26936;SDS011;14495;48.116;11.676;2022-08-30T12:45:59;3.60;;;2.65;;
26936;SDS011;14495;48.116;11.676;2022-08-30T12:48:28;2.50;;;2.08;;
26936;SDS011;14495;48.116;11.676;2022-08-30T12:50:57;2.92;;;2.15;;
26936;SDS011;14495;48.116;11.676;2022-08-30T12:53:29;3.15;;;2.22;;
26936;SDS011;14495;48.116;11.676;2022-08-30T13:01:17;3.28;;;2.53;;
26936;SDS011;14495;48.116;11.676;2022-08-30T13:03:52;2.42;;;2.08;;
26936;SDS011;14495;48.116;11.676;2022-08-30T13:09:06;2.45;;;2.25;;
26936;SDS011;14495;48.116;11.676;2022-08-30T13:11:32;3.55;;;2.33;;
26936;SDS011;14495;48.116;11.676;2022-08-30T13:17:11;3.38;;;2.83;;
26936;SDS011;14495;48.116;11.676;2022-08-30T13:19:44;3.97;;;2.80;;
26936;SDS011;14495;48.116;11.676;2022-08-30T13:22:22;3.40;;;2.90;;
26936;SDS011;14495;48.116;11.676;2022-08-30T13:25:11;3.28;;;2.65;;
26936;SDS011;14495;48.116;11.676;2022-08-30T13:27:37;2.92;;;2.42;;
26936;SDS011;14495;48.116;11.676;2022-08-30T13:30:10;3.08;;;2.78;;
26936;SDS011;14495;48.116;11.676;2022-08-30T13:32:38;3.65;;;2.50;;
26936;SDS011;14495;48.116;11.676;2022-08-30T13:35:04;4.47;;;2.50;;
26936;SDS011;14495;48.116;11.676;2022-08-30T13:37:31;2.88;;;2.53;;
26936;SDS011;14495;48.116;11.676;2022-08-30T13:39:57;3.20;;;2.55;;
26936;SDS011;14495;48.116;11.676;2022-08-30T13:42:23;3.92;;;2.50;;
26936;SDS011;14495;48.116;11.676;2022-08-30T13:44:48;4.10;;;3.08;;
26936;SDS011;14495;48.116;11.676;2022-08-30T13:47:13;3.20;;;2.75;;
26936;SDS011;14495;48.116;11.676;2022-08-30T13:49:40;2.90;;;2.60;;
26936;SDS011;14495;48.116;11.676;2022-08-30T13:52:08;3.17;;;2.75;;
26936;SDS011;14495;48.116;11.676;2022-08-30T13:54:34;3.47;;;3.17;;
26936;SDS011;14495;48.116;11.676;2022-08-30T13:57:00;3.45;;;2.80;;
26936;SDS011;14495;48.116;11.676;2022-08-30T13:59:25;3.97;;;2.83;;
26936;SDS011;14495;48.116;11.676;2022-08-30T14:01:52;5.00;;;3.10;;
26936;SDS011;14495;48.116;11.676;2022-08-30T14:04:19;3.33;;;2.95;;
26936;SDS011;14495;48.116;11.676;2022-08-30T14:06:44;4.55;;;2.83;;
26936;SDS011;14495;48.116;11.676;2022-08-30T14:09:10;3.50;;;2.33;;
26936;SDS011;14495;48.116;11.676;2022-08-30T14:11:36;3.75;;;2.97;;
26936;SDS011;14495;48.116;11.676;2022-08-30T14:14:02;3.40;;;2.88;;
26936;SDS011;14495;48.116;11.676;2022-08-30T14:16:29;3.55;;;3.08;;
26936;SDS011;14495;48.116;11.676;2022-08-30T14:18:56;5.25;;;2.70;;
26936;SDS011;14495;48.116;11.676;2022-08-30T14:21:22;5.22;;;3.38;;
26936;SDS011;14495;48.116;11.676;2022-08-30T14:23:48;4.18;;;3.15;;
26936;SDS011;14495;48.116;11.676;2022-08-30T14:26:19;3.67;;;2.53;;
26936;SDS011;14495;48.116;11.676;2022-08-30T14:28:46;3.55;;;2.83;;
26936;SDS011;14495;48.116;11.676;2022-08-30T14:31:12;3.53;;;3.08;;
26936;SDS011;14495;48.116;11.676;2022-08-30T14:33:40;3.60;;;2.70;;
26936;SDS011;14495;48.116;11.676;2022-08-30T14:36:05;4.13;;;2.70;;
26936;SDS011;14495;48.116;11.676;2022-08-30T14:38:31;3.50;;;2.67;;
26936;SDS011;14495;48.116;11.676;2022-08-30T14:40:56;2.35;;;2.15;;
26936;SDS011;14495;48.116;11.676;2022-08-30T14:43:21;3.55;;;3.20;;
26936;SDS011;14495;48.116;11.676;2022-08-30T14:45:47;3.10;;;2.63;;
26936;SDS011;14495;48.116;11.676;2022-08-30T14:48:12;2.67;;;2.45;;
26936;SDS011;14495;48.116;11.676;2022-08-30T14:50:38;3.78;;;2.60;;
26936;SDS011;14495;48.116;11.676;2022-08-30T14:53:03;2.97;;;2.30;;
26936;SDS011;14495;48.116;11.676;2022-08-30T14:55:29;3.67;;;2.78;;
26936;SDS011;14495;48.116;11.676;2022-08-30T14:57:56;2.83;;;2.17;;
26936;SDS011;14495;48.116;11.676;2022-08-30T15:00:22;3.08;;;2.58;;
26936;SDS011;14495;48.116;11.676;2022-08-30T15:02:47;3.45;;;2.40;;
26936;SDS011;14495;48.116;11.676;2022-08-30T15:05:13;2.78;;;2.25;;
26936;SDS011;14495;48.116;11.676;2022-08-30T15:07:38;3.53;;;2.40;;
26936;SDS011;14495;48.116;11.676;2022-08-30T15:10:04;4.55;;;2.45;;
26936;SDS011;14495;48.116;11.676;2022-08-30T15:12:31;3.10;;;2.58;;
26936;SDS011;14495;48.116;11.676;2022-08-30T15:14:57;5.55;;;2.80;;
26936;SDS011;14495;48.116;11.676;2022-08-30T15:17:22;3.55;;;2.65;;
26936;SDS011;14495;48.116;11.676;2022-08-30T15:19:48;4.03;;;2.63;;
26936;SDS011;14495;48.116;11.676;2022-08-30T15:22:13;2.58;;;2.35;;
26936;SDS011;14495;48.116;11.676;2022-08-30T15:24:38;4.90;;;3.08;;
26936;SDS011;14495;48.116;11.676;2022-08-30T15:27:04;2.97;;;2.45;;
26936;SDS011;14495;48.116;11.676;2022-08-30T15:29:30;3.30;;;2.70;;
26936;SDS011;14495;48.116;11.676;2022-08-30T15:31:56;3.35;;;2.78;;
26936;SDS011;14495;48.116;11.676;2022-08-30T15:34:22;2.97;;;2.50;;
26936;SDS011;14495;48.116;11.676;2022-08-30T15:36:48;4.10;;;3.00;;
26936;SDS011;14495;48.116;11.676;2022-08-30T15:39:15;4.38;;;2.90;;
26936;SDS011;14495;48.116;11.676;2022-08-30T15:41:41;3.13;;;2.63;;
26936;SDS011;14495;48.116;11.676;2022-08-30T15:44:08;2.95;;;2.33;;
26936;SDS011;14495;48.116;11.676;2022-08-30T15:46:35;3.40;;;2.53;;
26936;SDS011;14495;48.116;11.676;2022-08-30T15:49:06;2.65;;;2.35;;
26936;SDS011;14495;48.116;11.676;2022-08-30T15:51:34;2.97;;;2.28;;
26936;SDS011;14495;48.116;11.676;2022-08-30T15:54:03;2.72;;;2.33;;
26936;SDS011;14495;48.116;11.676;2022-08-30T15:56:30;4.65;;;2.60;;